createdAt,value
2023-04-17T00:01:15.939Z,6.80
2023-04-17T00:03:47.332Z,6.87
2023-04-17T00:06:16.405Z,6.40
2023-04-17T00:08:44.639Z,7.47
2023-04-17T00:11:12.506Z,6.73
2023-04-17T00:13:40.420Z,7.00
2023-04-17T00:16:10.685Z,6.50
2023-04-17T00:18:38.588Z,6.63
2023-04-17T00:21:07.898Z,6.77
2023-04-17T00:23:35.760Z,6.27
2023-04-17T00:26:03.625Z,6.37
2023-04-17T00:28:31.488Z,6.43
2023-04-17T00:30:59.660Z,6.53
2023-04-17T00:33:27.548Z,6.07
2023-04-17T00:35:55.508Z,6.83
2023-04-17T00:38:24.732Z,6.60
2023-04-17T00:40:52.718Z,6.60
2023-04-17T00:43:20.666Z,6.47
2023-04-17T00:45:48.641Z,6.63
2023-04-17T00:48:16.750Z,7.03
2023-04-17T00:50:44.838Z,6.57
2023-04-17T00:53:12.819Z,5.97
2023-04-17T00:55:42.158Z,6.00
2023-04-17T00:58:10.122Z,5.67
2023-04-17T01:00:37.972Z,5.50
2023-04-17T01:03:06.142Z,5.73
2023-04-17T01:05:35.609Z,5.80
2023-04-17T01:08:03.527Z,5.83
2023-04-17T01:10:31.837Z,5.43
2023-04-17T01:13:04.303Z,5.77
2023-04-17T01:15:32.151Z,6.07
2023-04-17T01:18:00.209Z,5.80
2023-04-17T01:20:31.113Z,6.17
2023-04-17T01:22:59.275Z,5.87
2023-04-17T01:25:28.834Z,5.53
2023-04-17T01:27:56.890Z,5.50
2023-04-17T01:30:24.855Z,6.03
2023-04-17T01:32:54.962Z,5.57
2023-04-17T01:35:23.091Z,5.20
2023-04-17T01:37:51.193Z,5.20
2023-04-17T01:40:19.319Z,5.43
2023-04-17T01:42:48.585Z,5.73
2023-04-17T01:45:16.557Z,5.90
2023-04-17T01:47:44.499Z,5.87
2023-04-17T01:50:13.684Z,5.70
2023-04-17T01:52:41.576Z,6.17
2023-04-17T01:55:10.150Z,5.80
2023-04-17T01:57:38.101Z,5.70
2023-04-17T02:00:09.299Z,5.90
2023-04-17T02:02:37.378Z,6.10
2023-04-17T02:05:05.905Z,6.07
2023-04-17T02:07:33.797Z,6.33
2023-04-17T02:10:01.708Z,7.10
2023-04-17T02:12:29.654Z,7.33
2023-04-17T02:15:01.191Z,7.00
2023-04-17T02:17:30.566Z,6.90
2023-04-17T02:19:58.424Z,6.50
2023-04-17T02:22:26.338Z,6.10
2023-04-17T02:24:54.231Z,6.67
2023-04-17T02:27:22.182Z,6.23
2023-04-17T02:29:50.086Z,6.73
2023-04-17T02:32:18.168Z,6.70
2023-04-17T02:34:47.475Z,6.30
2023-04-17T02:37:15.521Z,6.47
2023-04-17T02:39:43.436Z,6.30
2023-04-17T02:42:12.969Z,5.90
2023-04-17T02:44:40.977Z,6.73
2023-04-17T02:47:08.868Z,5.33
2023-04-17T02:49:36.725Z,5.90
2023-04-17T02:52:06.809Z,5.93
2023-04-17T02:54:34.760Z,5.90
2023-04-17T02:57:03.137Z,5.70
2023-04-17T02:59:31.072Z,5.87
2023-04-17T03:01:59.882Z,5.83
2023-04-17T03:04:28.708Z,6.10
2023-04-17T03:06:56.658Z,6.50
2023-04-17T03:09:26.157Z,6.63
2023-04-17T03:11:54.030Z,6.50
2023-04-17T03:14:21.892Z,6.53
2023-04-17T03:16:49.805Z,6.70
2023-04-17T03:19:17.710Z,6.53
2023-04-17T03:21:45.681Z,6.67
2023-04-17T03:24:13.570Z,7.30
2023-04-17T03:26:42.879Z,7.10
2023-04-17T03:29:11.083Z,6.73
2023-04-17T03:31:39.128Z,7.10
2023-04-17T03:34:07.048Z,6.57
2023-04-17T03:36:35.685Z,6.97
2023-04-17T03:39:03.596Z,6.67
2023-04-17T03:41:31.522Z,5.90
2023-04-17T03:44:00.887Z,6.13
2023-04-17T03:46:28.840Z,6.13
2023-04-17T03:48:56.747Z,6.30
2023-04-17T03:51:24.836Z,5.83
2023-04-17T03:53:52.741Z,6.27
2023-04-17T03:56:20.629Z,5.87
2023-04-17T03:58:48.495Z,5.17
2023-04-17T04:01:17.758Z,6.00
2023-04-17T04:03:45.868Z,6.13
2023-04-17T04:06:14.006Z,5.73
2023-04-17T04:08:41.883Z,6.47
2023-04-17T04:11:09.801Z,6.07
2023-04-17T04:13:37.677Z,6.57
2023-04-17T04:16:05.776Z,6.23
2023-04-17T04:18:35.109Z,6.07
2023-04-17T04:21:03.001Z,6.10
2023-04-17T04:23:31.080Z,5.83
2023-04-17T04:26:01.721Z,6.50
2023-04-17T04:28:30.294Z,5.73
2023-04-17T04:30:58.861Z,5.93
2023-04-17T04:33:27.703Z,6.90
2023-04-17T04:36:01.113Z,6.50
2023-04-17T04:38:32.727Z,6.00
2023-04-17T04:41:06.210Z,5.60
2023-04-17T04:43:34.894Z,5.87
2023-04-17T04:46:02.762Z,6.40
2023-04-17T04:48:30.741Z,5.83
2023-04-17T04:50:59.996Z,6.37
2023-04-17T04:53:27.955Z,6.13
2023-04-17T04:55:55.939Z,6.00
2023-04-17T04:58:24.007Z,5.53
2023-04-17T05:00:51.888Z,6.27
2023-04-17T05:03:20.012Z,6.50
2023-04-17T05:05:47.978Z,6.33
2023-04-17T05:08:17.320Z,6.07
2023-04-17T05:10:46.103Z,6.53
2023-04-17T05:13:14.040Z,7.17
2023-04-17T05:15:42.517Z,6.63
2023-04-17T05:18:10.544Z,7.20
2023-04-17T05:20:41.197Z,7.40
2023-04-17T05:23:09.042Z,7.27
2023-04-17T05:25:38.342Z,6.80
2023-04-17T05:28:06.594Z,7.37
2023-04-17T05:30:34.882Z,7.70
2023-04-17T05:33:03.121Z,7.13
2023-04-17T05:35:31.025Z,7.60
2023-04-17T05:37:58.909Z,6.83
2023-04-17T05:40:26.864Z,7.37
2023-04-17T05:42:56.527Z,7.07
2023-04-17T05:45:25.783Z,7.53
2023-04-17T05:47:53.794Z,6.60
2023-04-17T05:50:21.854Z,6.67
2023-04-17T05:52:49.720Z,6.60
2023-04-17T05:55:20.133Z,6.73
2023-04-17T05:57:48.046Z,7.30
2023-04-17T06:00:18.764Z,7.23
2023-04-17T06:02:46.997Z,6.73
2023-04-17T06:05:16.536Z,6.37
2023-04-17T06:07:44.569Z,6.90
2023-04-17T06:10:12.901Z,6.33
2023-04-17T06:12:40.804Z,6.67
2023-04-17T06:15:10.115Z,6.90
2023-04-17T06:17:39.475Z,6.17
2023-04-17T06:20:10.454Z,5.97
2023-04-17T06:22:38.389Z,6.33
2023-04-17T06:25:07.542Z,5.97
2023-04-17T06:27:36.922Z,6.30
2023-04-17T06:30:06.175Z,6.70
2023-04-17T06:32:36.799Z,6.90
2023-04-17T06:35:06.780Z,5.70
2023-04-17T06:37:34.672Z,6.13
2023-04-17T06:40:02.571Z,5.83
2023-04-17T06:42:30.477Z,6.17
2023-04-17T06:44:58.334Z,6.27
2023-04-17T06:47:26.228Z,6.27
2023-04-17T06:49:54.084Z,6.83
2023-04-17T06:52:23.355Z,6.30
2023-04-17T06:54:51.346Z,6.27
2023-04-17T06:57:19.286Z,6.20
2023-04-17T06:59:47.201Z,6.47
2023-04-17T07:02:15.236Z,6.20
2023-04-17T07:04:43.455Z,5.87
2023-04-17T07:07:11.896Z,5.53
2023-04-17T07:09:43.023Z,6.23
2023-04-17T07:12:10.973Z,6.57
2023-04-17T07:14:40.623Z,6.27
2023-04-17T07:17:08.545Z,6.83
2023-04-17T07:19:36.532Z,6.80
2023-04-17T07:22:05.514Z,7.03
2023-04-17T07:24:35.097Z,7.87
2023-04-17T07:27:04.622Z,7.33
2023-04-17T07:29:33.499Z,7.30
2023-04-17T07:32:01.694Z,8.53
2023-04-17T07:34:31.352Z,7.43
2023-04-17T07:36:59.298Z,7.70
2023-04-17T07:39:31.590Z,7.13
2023-04-17T07:41:59.502Z,7.20
2023-04-17T07:44:28.939Z,7.10
2023-04-17T07:46:56.968Z,6.50
2023-04-17T07:49:25.088Z,7.23
2023-04-17T07:51:53.025Z,7.47
2023-04-17T07:54:21.115Z,7.00
2023-04-17T07:56:49.430Z,7.00
2023-04-17T07:59:17.407Z,7.07
2023-04-17T08:01:46.682Z,6.93
2023-04-17T08:04:14.861Z,6.50
2023-04-17T08:06:43.326Z,6.53
2023-04-17T08:09:11.585Z,6.67
2023-04-17T08:11:53.439Z,6.33
2023-04-17T08:14:25.054Z,5.80
2023-04-17T08:16:54.549Z,6.10
2023-04-17T08:19:22.602Z,6.17
2023-04-17T08:21:50.831Z,5.73
2023-04-17T08:24:19.881Z,5.73
2023-04-17T08:26:48.481Z,6.13
2023-04-17T08:29:16.590Z,6.10
2023-04-17T08:31:44.561Z,6.60
2023-04-17T08:34:15.244Z,5.97
2023-04-17T08:36:43.619Z,6.63
2023-04-17T08:39:12.412Z,6.50
2023-04-17T08:41:43.849Z,6.47
2023-04-17T08:44:11.876Z,5.40
2023-04-17T08:46:40.724Z,6.47
2023-04-17T08:49:08.867Z,6.43
2023-04-17T08:51:38.214Z,6.50
2023-04-17T08:54:06.349Z,6.47
2023-04-17T08:56:34.259Z,6.47
2023-04-17T08:59:02.188Z,6.07
2023-04-17T09:01:30.235Z,6.60
2023-04-17T09:03:58.331Z,7.23
2023-04-17T09:06:27.529Z,7.27
2023-04-17T09:08:58.100Z,6.70
2023-04-17T09:11:26.099Z,6.33
2023-04-17T09:13:54.027Z,6.87
2023-04-17T09:16:22.005Z,7.00
2023-04-17T09:18:50.460Z,8.00
2023-04-17T09:21:19.701Z,8.10
2023-04-17T09:23:49.387Z,7.70
2023-04-17T09:26:21.102Z,7.57
2023-04-17T09:29:09.351Z,6.70
2023-04-17T09:31:38.024Z,6.63
2023-04-17T09:34:07.566Z,6.47
2023-04-17T09:36:36.857Z,7.27
2023-04-17T09:39:05.535Z,7.13
2023-04-17T09:41:36.422Z,5.80
2023-04-17T09:44:06.511Z,4.90
2023-04-17T09:46:35.489Z,4.23
2023-04-17T09:49:04.253Z,5.23
2023-04-17T09:51:32.325Z,4.80
2023-04-17T09:54:00.220Z,4.50
2023-04-17T09:56:29.648Z,4.20
2023-04-17T09:58:59.123Z,4.30
2023-04-17T10:01:27.702Z,4.27
2023-04-17T10:03:56.019Z,4.47
2023-04-17T10:06:24.143Z,4.00
2023-04-17T10:08:52.056Z,4.27
2023-04-17T10:11:19.950Z,4.00
2023-04-17T10:13:48.325Z,4.33
2023-04-17T10:16:17.799Z,2.90
2023-04-17T10:18:45.933Z,3.10
2023-04-17T10:21:21.866Z,3.30
2023-04-17T10:23:49.861Z,3.27
2023-04-17T10:26:41.655Z,3.53
2023-04-17T10:29:09.667Z,8.60
2023-04-17T10:32:28.433Z,3.80
2023-04-17T10:34:58.305Z,3.83
2023-04-17T10:38:07.738Z,3.87
2023-04-17T10:40:36.386Z,3.83
2023-04-17T10:43:07.008Z,3.77
2023-04-17T10:45:57.499Z,3.93
2023-04-17T10:48:29.296Z,3.93
2023-04-17T10:50:58.828Z,4.00
2023-04-17T10:53:43.344Z,5.40
2023-04-17T10:56:11.651Z,5.60
2023-04-17T10:58:40.594Z,6.00
2023-04-17T11:01:12.287Z,4.83
2023-04-17T11:03:40.301Z,4.37
2023-04-17T11:06:10.260Z,4.87
2023-04-17T11:08:38.151Z,4.40
2023-04-17T11:11:06.265Z,3.87
2023-04-17T11:13:35.246Z,3.47
2023-04-17T11:16:04.925Z,3.30
2023-04-17T11:18:33.087Z,3.30
2023-04-17T11:21:02.176Z,3.50
2023-04-17T11:23:34.596Z,3.23
2023-04-17T11:26:02.583Z,4.30
2023-04-17T11:28:30.609Z,3.50
2023-04-17T11:30:58.529Z,3.40
2023-04-17T11:33:26.675Z,4.10
2023-04-17T11:35:55.380Z,3.27
2023-04-17T11:38:23.801Z,3.40
2023-04-17T11:40:53.972Z,3.20
2023-04-17T11:43:22.564Z,3.20
2023-04-17T11:45:51.871Z,3.47
2023-04-17T11:48:22.652Z,3.00
2023-04-17T11:50:50.546Z,3.50
2023-04-17T11:53:18.589Z,3.07
2023-04-17T11:55:51.031Z,3.20
2023-04-17T11:58:20.634Z,2.87
2023-04-17T12:00:48.608Z,3.57
2023-04-17T12:03:33.864Z,3.77
2023-04-17T12:06:02.320Z,3.33
2023-04-17T12:08:31.124Z,3.87
2023-04-17T12:10:59.222Z,4.00
2023-04-17T12:13:32.716Z,3.30
2023-04-17T12:16:00.852Z,3.53
2023-04-17T12:18:28.962Z,3.57
2023-04-17T12:20:57.045Z,3.27
2023-04-17T12:23:25.374Z,3.37
2023-04-17T12:25:53.263Z,3.10
2023-04-17T12:28:22.135Z,3.30
2023-04-17T12:30:51.627Z,2.50
2023-04-17T12:33:19.561Z,2.70
2023-04-17T12:35:47.451Z,3.13
2023-04-17T12:38:15.562Z,3.80
2023-04-17T12:40:45.462Z,4.00
2023-04-17T12:43:13.955Z,4.17
2023-04-17T12:45:45.787Z,4.20
2023-04-17T12:48:15.646Z,3.93
2023-04-17T12:50:43.981Z,3.92
2023-04-17T12:53:12.766Z,3.35
2023-04-17T12:55:41.170Z,3.83
2023-04-17T12:58:10.359Z,4.82
2023-04-17T13:00:38.445Z,4.90
2023-04-17T13:03:06.826Z,5.10
2023-04-17T13:05:36.653Z,5.90
2023-04-17T13:08:04.771Z,5.43
2023-04-17T13:10:34.269Z,5.53
2023-04-17T13:13:04.703Z,5.60
2023-04-17T13:15:33.181Z,5.57
2023-04-17T13:18:02.205Z,6.15
2023-04-17T13:20:30.291Z,5.72
2023-04-17T13:22:59.997Z,5.95
2023-04-17T13:25:27.956Z,6.57
2023-04-17T13:27:56.216Z,6.97
2023-04-17T13:30:24.954Z,9.15
2023-04-17T13:32:52.940Z,9.63
2023-04-17T13:35:20.906Z,8.93
2023-04-17T13:37:49.011Z,8.93
2023-04-17T13:40:18.544Z,8.93
2023-04-17T13:42:46.695Z,7.97
2023-04-17T13:45:16.104Z,7.80
2023-04-17T13:47:44.638Z,7.30
2023-04-17T13:50:12.627Z,6.80
2023-04-17T13:52:40.825Z,5.10
2023-04-17T13:55:13.102Z,4.57
2023-04-17T13:57:42.480Z,4.30
2023-04-17T14:00:11.944Z,4.07
2023-04-17T14:02:40.159Z,4.33
2023-04-17T14:05:09.170Z,4.83
2023-04-17T14:07:37.623Z,5.13
2023-04-17T14:10:06.464Z,4.83
2023-04-17T14:12:34.616Z,5.03
2023-04-17T14:15:03.972Z,4.53
2023-04-17T14:17:32.645Z,4.07
2023-04-17T14:20:00.621Z,3.50
2023-04-17T14:22:28.446Z,3.40
2023-04-17T14:24:56.601Z,3.13
2023-04-17T14:27:24.547Z,2.80
2023-04-17T14:29:52.393Z,2.90
2023-04-17T14:32:21.805Z,2.77
2023-04-17T14:34:49.895Z,2.60
2023-04-17T14:37:17.997Z,2.57
2023-04-17T14:39:45.966Z,2.70
2023-04-17T14:42:13.854Z,12.83
2023-04-17T14:44:43.713Z,2.83
2023-04-17T14:47:13.159Z,2.40
2023-04-17T14:49:42.468Z,2.80
2023-04-17T14:52:10.373Z,2.40
2023-04-17T14:54:38.342Z,2.60
2023-04-17T14:57:06.352Z,2.30
2023-04-17T14:59:34.484Z,1.90
2023-04-17T15:02:02.497Z,2.10
2023-04-17T15:04:30.935Z,3.17
2023-04-17T15:07:00.441Z,1.80
2023-04-17T15:09:29.644Z,1.50
2023-04-17T15:11:57.899Z,0.93
2023-04-17T15:14:26.539Z,0.90
2023-04-17T15:16:54.572Z,0.80
2023-04-17T15:19:22.668Z,0.80
2023-04-17T15:21:50.752Z,0.70
2023-04-17T15:24:20.001Z,0.80
2023-04-17T15:26:49.025Z,0.80
2023-04-17T15:29:17.003Z,0.80
2023-04-17T15:31:44.882Z,0.90
2023-04-17T15:34:13.615Z,1.27
2023-04-17T15:36:42.154Z,1.23
2023-04-17T15:39:10.222Z,1.20
2023-04-17T15:41:40.627Z,1.30
2023-04-17T15:44:08.885Z,1.40
2023-04-17T15:46:37.129Z,1.40
2023-04-17T15:49:08.850Z,1.20
2023-04-17T15:51:49.548Z,1.00
2023-04-17T15:54:18.432Z,1.00
2023-04-17T15:56:47.916Z,1.03
2023-04-17T15:59:16.099Z,1.10
2023-04-17T16:01:44.911Z,1.20
2023-04-17T16:04:13.045Z,1.30
2023-04-17T16:06:41.284Z,1.40
2023-04-17T16:09:10.008Z,1.40
2023-04-17T16:11:38.015Z,1.70
2023-04-17T16:14:07.655Z,1.43
2023-04-17T16:16:35.694Z,1.97
2023-04-17T16:19:03.698Z,1.63
2023-04-17T16:21:32.012Z,1.50
2023-04-17T16:23:59.906Z,1.50
2023-04-17T16:26:27.998Z,1.70
2023-04-17T16:28:55.884Z,1.60
2023-04-17T16:31:26.177Z,1.70
2023-04-17T16:33:54.102Z,1.70
2023-04-17T16:36:21.990Z,2.00
2023-04-17T16:38:49.894Z,2.50
2023-04-17T16:41:18.736Z,3.20
2023-04-17T16:43:46.994Z,2.60
2023-04-17T16:46:23.829Z,2.50
2023-04-17T16:48:57.705Z,3.03
2023-04-17T16:51:26.252Z,2.63
2023-04-17T16:53:54.162Z,2.60
2023-04-17T16:56:22.239Z,3.00
2023-04-17T16:58:50.609Z,2.80
2023-04-17T17:01:26.887Z,2.27
2023-04-17T17:03:54.826Z,2.27
2023-04-17T17:06:23.050Z,2.30
2023-04-17T17:08:52.088Z,2.80
2023-04-17T17:11:21.788Z,2.60
2023-04-17T17:13:50.246Z,2.97
2023-04-17T17:16:18.848Z,2.63
2023-04-17T17:18:48.974Z,3.50
2023-04-17T17:21:17.538Z,2.70
2023-04-17T17:23:45.436Z,4.10
2023-04-17T17:26:13.386Z,3.90
2023-04-17T17:28:41.346Z,4.53
2023-04-17T17:31:09.387Z,3.20
2023-04-17T17:33:37.279Z,3.90
2023-04-17T17:36:08.944Z,4.20
2023-04-17T17:38:36.894Z,3.87
2023-04-17T17:41:05.203Z,4.20
2023-04-17T17:43:35.211Z,4.30
2023-04-17T17:46:03.164Z,5.17
2023-04-17T17:48:31.083Z,4.40
2023-04-17T17:50:59.031Z,4.43
2023-04-17T17:53:28.548Z,4.40
2023-04-17T17:55:56.815Z,4.37
2023-04-17T17:58:24.896Z,4.57
2023-04-17T18:00:53.113Z,5.07
2023-04-17T18:03:21.345Z,4.70
2023-04-17T18:05:49.391Z,4.47
2023-04-17T18:08:17.790Z,4.47
2023-04-17T18:10:47.196Z,4.30
2023-04-17T18:13:16.112Z,3.73
2023-04-17T18:15:44.069Z,4.03
2023-04-17T18:18:12.044Z,4.10
2023-04-17T18:20:40.492Z,4.00
2023-04-17T18:23:08.571Z,4.00
2023-04-17T18:25:36.622Z,3.30
2023-04-17T18:28:06.358Z,3.90
2023-04-17T18:30:34.371Z,3.97
2023-04-17T18:33:02.457Z,5.90
2023-04-17T18:35:30.385Z,5.90
2023-04-17T18:37:58.274Z,5.43
2023-04-17T18:40:26.160Z,5.77
2023-04-17T18:42:54.055Z,5.23
2023-04-17T18:45:24.406Z,4.60
2023-04-17T18:47:52.912Z,5.00
2023-04-17T18:50:20.943Z,4.33
2023-04-17T18:52:51.048Z,4.40
2023-04-17T18:55:19.496Z,4.53
2023-04-17T18:57:47.426Z,4.47
2023-04-17T19:00:15.726Z,3.90
2023-04-17T19:02:45.217Z,4.03
2023-04-17T19:05:13.247Z,3.73
2023-04-17T19:07:41.545Z,4.03
2023-04-17T19:10:10.304Z,4.37
2023-04-17T19:12:38.243Z,4.00
2023-04-17T19:15:07.214Z,4.33
2023-04-17T19:17:35.125Z,4.60
2023-04-17T19:20:04.552Z,4.53
2023-04-17T19:22:32.471Z,4.93
2023-04-17T19:25:00.417Z,4.67
2023-04-17T19:27:28.704Z,4.17
2023-04-17T19:29:56.590Z,4.33
2023-04-17T19:32:24.510Z,4.13
2023-04-17T19:34:52.504Z,4.27
2023-04-17T19:37:21.779Z,4.07
2023-04-17T19:39:49.708Z,4.00
2023-04-17T19:42:17.586Z,3.93
2023-04-17T19:44:46.162Z,3.57
2023-04-17T19:47:14.008Z,4.00
2023-04-17T19:49:41.859Z,3.83
2023-04-17T19:52:09.787Z,4.40
2023-04-17T19:54:39.387Z,4.13
2023-04-17T19:57:07.274Z,4.03
2023-04-17T19:59:35.167Z,3.73
2023-04-17T20:02:03.102Z,4.13
2023-04-17T20:04:31.205Z,4.27
2023-04-17T20:06:59.477Z,4.10
2023-04-17T20:09:27.488Z,4.63
2023-04-17T20:11:56.777Z,4.57
2023-04-17T20:14:25.774Z,4.20
2023-04-17T20:16:53.766Z,4.80
2023-04-17T20:19:21.672Z,4.50
2023-04-17T20:21:49.559Z,4.93
2023-04-17T20:24:17.434Z,4.50
2023-04-17T20:26:45.631Z,4.47
2023-04-17T20:29:15.078Z,4.13
2023-04-17T20:31:43.284Z,4.70
2023-04-17T20:34:11.445Z,4.83
2023-04-17T20:36:39.421Z,6.20
2023-04-17T20:39:07.339Z,6.23
2023-04-17T20:41:36.463Z,6.43
2023-04-17T20:44:05.700Z,6.33
2023-04-17T20:46:35.119Z,7.10
2023-04-17T20:49:03.369Z,7.63
2023-04-17T20:51:31.906Z,8.03
2023-04-17T20:53:59.815Z,7.73
2023-04-17T20:56:27.720Z,8.10
2023-04-17T20:58:55.636Z,8.07
2023-04-17T21:01:23.595Z,7.53
2023-04-17T21:03:53.094Z,7.13
2023-04-17T21:06:22.986Z,7.50
2023-04-17T21:08:51.064Z,7.67
2023-04-17T21:11:18.949Z,7.87
2023-04-17T21:13:46.864Z,7.83
2023-04-17T21:16:14.831Z,8.40
2023-04-17T21:18:42.756Z,8.63
2023-04-17T21:21:11.998Z,8.83
2023-04-17T21:23:39.928Z,9.10
2023-04-17T21:26:07.834Z,9.03
2023-04-17T21:28:37.409Z,9.50
2023-04-17T21:31:08.488Z,9.10
2023-04-17T21:33:36.576Z,8.97
2023-04-17T21:36:04.689Z,9.40
2023-04-17T21:38:33.953Z,9.33
2023-04-17T21:41:01.922Z,8.97
2023-04-17T21:43:29.783Z,8.80
2023-04-17T21:45:57.788Z,10.30
2023-04-17T21:48:25.774Z,10.07
2023-04-17T21:50:56.143Z,9.63
2023-04-17T21:53:24.172Z,10.40
2023-04-17T21:55:53.450Z,10.13
2023-04-17T21:58:21.321Z,10.80
2023-04-17T22:00:49.262Z,10.53
2023-04-17T22:03:17.835Z,10.73
2023-04-17T22:05:46.359Z,10.10
2023-04-17T22:08:14.247Z,10.07
2023-04-17T22:10:42.162Z,10.63
2023-04-17T22:13:11.568Z,10.30
2023-04-17T22:15:39.482Z,10.30
2023-04-17T22:18:07.336Z,10.70
2023-04-17T22:20:35.226Z,10.37
2023-04-17T22:23:03.111Z,11.07
2023-04-17T22:25:31.050Z,10.40
2023-04-17T22:27:58.940Z,11.03
2023-04-17T22:30:28.251Z,10.77
2023-04-17T22:32:57.222Z,10.30
2023-04-17T22:35:25.290Z,10.93
2023-04-17T22:37:53.217Z,11.17
2023-04-17T22:40:21.234Z,10.07
2023-04-17T22:42:50.289Z,9.73
2023-04-17T22:45:18.281Z,9.93
2023-04-17T22:47:47.581Z,10.37
2023-04-17T22:50:15.508Z,11.30
2023-04-17T22:52:43.399Z,10.40
2023-04-17T22:55:11.303Z,11.37
2023-04-17T22:57:39.552Z,10.60
2023-04-17T23:00:09.734Z,11.10
2023-04-17T23:02:37.815Z,11.30
2023-04-17T23:05:08.645Z,11.97
2023-04-17T23:07:36.586Z,11.17
2023-04-17T23:10:04.759Z,11.67
2023-04-17T23:12:32.758Z,12.20
2023-04-17T23:15:00.669Z,12.77
2023-04-17T23:17:28.537Z,12.70
2023-04-17T23:19:56.594Z,12.10
2023-04-17T23:22:25.930Z,13.67
2023-04-17T23:24:53.868Z,12.30
2023-04-17T23:27:22.055Z,12.67
2023-04-17T23:29:49.924Z,12.83
2023-04-17T23:32:17.914Z,13.50
2023-04-17T23:34:45.878Z,13.00
2023-04-17T23:37:13.739Z,12.90
2023-04-17T23:39:42.993Z,13.77
2023-04-17T23:42:10.854Z,16.00
2023-04-17T23:44:38.715Z,16.50
2023-04-17T23:47:06.641Z,17.50
2023-04-17T23:49:34.609Z,17.83
2023-04-17T23:52:02.521Z,18.00
2023-04-17T23:54:30.414Z,17.23
2023-04-17T23:56:59.680Z,18.10
2023-04-17T23:59:27.518Z,17.37
